NJE9L LIME-LFMN
Flight info
| Callsign | NJE9L |
|---|---|
| Flight time | 0h 33m |
| Altitude | 33000 |
| Route | VOG Q712 ENOBA DCT ADUDU DCT FI04R DCT ML04R |
| Aircraft | CL60/M-SBDE1E2E3FGHIJ1J4J5J7M3RWXYZ/LB1V1D1 |
Departure
| Time | 2026-05-01 12:36 |
|---|---|
| Airport | Il Caravaggio International Airport (LIME) |
Arrival
| Time | 2026-05-01 13:10 |
|---|---|
| Airport | Nice-Côte d'Azur Airport (LFMN) |
| Time | Latitude | Longitude | Altitude | Speed | Heading |
|---|---|---|---|---|---|
| 2026-05-01 12:36 | 45.61160 | 9.84774 | 10042 ft | 267 kts | 152° |
| 2026-05-01 12:36 | 45.59401 | 9.85463 | 11274 ft | 272 kts | 178° |
| 2026-05-01 12:37 | 45.57568 | 9.84967 | 12477 ft | 277 kts | 205° |
| 2026-05-01 12:37 | 45.56079 | 9.83289 | 13663 ft | 281 kts | 235° |
| 2026-05-01 12:37 | 45.55376 | 9.80749 | 14765 ft | 286 kts | 263° |
| 2026-05-01 12:37 | 45.55091 | 9.77873 | 15591 ft | 308 kts | 260° |
| 2026-05-01 12:38 | 45.54098 | 9.74892 | 15746 ft | 358 kts | 233° |
| 2026-05-01 12:38 | 45.52255 | 9.72284 | 16204 ft | 388 kts | 225° |
| 2026-05-01 12:38 | 45.50243 | 9.69629 | 16994 ft | 403 kts | 224° |
| 2026-05-01 12:38 | 45.48181 | 9.66903 | 17905 ft | 412 kts | 224° |
| 2026-05-01 12:39 | 45.46057 | 9.64069 | 18800 ft | 420 kts | 224° |
| 2026-05-01 12:39 | 45.43914 | 9.61159 | 19668 ft | 428 kts | 224° |
| 2026-05-01 12:39 | 45.41740 | 9.58208 | 20540 ft | 434 kts | 224° |
| 2026-05-01 12:39 | 45.39539 | 9.55218 | 21389 ft | 439 kts | 224° |
| 2026-05-01 12:40 | 45.37323 | 9.52209 | 22196 ft | 445 kts | 224° |
| 2026-05-01 12:40 | 45.35077 | 9.49158 | 22970 ft | 450 kts | 224° |
| 2026-05-01 12:40 | 45.32785 | 9.46046 | 23733 ft | 456 kts | 224° |
| 2026-05-01 12:40 | 45.30504 | 9.42952 | 24475 ft | 461 kts | 224° |
| 2026-05-01 12:41 | 45.28153 | 9.39765 | 25217 ft | 466 kts | 225° |
| 2026-05-01 12:41 | 45.25803 | 9.36581 | 25928 ft | 470 kts | 225° |
| 2026-05-01 12:41 | 45.23416 | 9.33351 | 26626 ft | 475 kts | 224° |
| 2026-05-01 12:41 | 45.21014 | 9.30102 | 27297 ft | 479 kts | 224° |
| 2026-05-01 12:42 | 45.18565 | 9.26792 | 27931 ft | 483 kts | 224° |
| 2026-05-01 12:42 | 45.16141 | 9.23521 | 28532 ft | 487 kts | 224° |
| 2026-05-01 12:42 | 45.13686 | 9.20211 | 29107 ft | 491 kts | 225° |
| 2026-05-01 12:42 | 45.11167 | 9.16818 | 29697 ft | 495 kts | 225° |
| 2026-05-01 12:43 | 45.08677 | 9.13468 | 30301 ft | 496 kts | 225° |
| 2026-05-01 12:43 | 45.06170 | 9.10098 | 30984 ft | 495 kts | 225° |
| 2026-05-01 12:43 | 45.03697 | 9.06780 | 31697 ft | 492 kts | 225° |
| 2026-05-01 12:43 | 45.01205 | 9.03439 | 32381 ft | 490 kts | 225° |
| 2026-05-01 12:44 | 44.98734 | 9.00133 | 32825 ft | 493 kts | 225° |
| 2026-05-01 12:44 | 44.96108 | 8.96979 | 33114 ft | 496 kts | 218° |
| 2026-05-01 12:44 | 44.90251 | 8.91841 | 33531 ft | 498 kts | 211° |
| 2026-05-01 12:45 | 44.84327 | 8.86920 | 33568 ft | 506 kts | 211° |
| 2026-05-01 12:45 | 44.78219 | 8.81856 | 33451 ft | 504 kts | 211° |
| 2026-05-01 12:46 | 44.72194 | 8.76875 | 33383 ft | 504 kts | 211° |
| 2026-05-01 12:46 | 44.66126 | 8.71875 | 33319 ft | 504 kts | 211° |
| 2026-05-01 12:47 | 44.60055 | 8.66887 | 33305 ft | 503 kts | 211° |
| 2026-05-01 12:47 | 44.54106 | 8.61729 | 33304 ft | 502 kts | 217° |
| 2026-05-01 12:48 | 44.48958 | 8.55129 | 33305 ft | 498 kts | 231° |
| 2026-05-01 12:48 | 44.44579 | 8.47602 | 33306 ft | 497 kts | 233° |
| 2026-05-01 12:49 | 44.40237 | 8.40101 | 33325 ft | 495 kts | 233° |
| 2026-05-01 12:49 | 44.35902 | 8.32626 | 33343 ft | 494 kts | 233° |
| 2026-05-01 12:50 | 44.31544 | 8.25130 | 33123 ft | 495 kts | 233° |
| 2026-05-01 12:50 | 44.29413 | 8.21472 | 32971 ft | 481 kts | 233° |
| 2026-05-01 12:50 | 44.27306 | 8.17860 | 32724 ft | 476 kts | 233° |
| 2026-05-01 12:51 | 44.25229 | 8.14301 | 32441 ft | 472 kts | 233° |
| 2026-05-01 12:51 | 44.23135 | 8.10718 | 32174 ft | 469 kts | 233° |
| 2026-05-01 12:51 | 44.19044 | 8.03728 | 31770 ft | 461 kts | 233° |
| 2026-05-01 12:52 | 44.17029 | 8.00292 | 31176 ft | 457 kts | 233° |
| 2026-05-01 12:52 | 44.12977 | 7.93390 | 29311 ft | 466 kts | 233° |
| 2026-05-01 12:52 | 44.10897 | 7.89853 | 28350 ft | 469 kts | 233° |
| 2026-05-01 12:53 | 44.06813 | 7.82924 | 26699 ft | 458 kts | 233° |
| 2026-05-01 12:53 | 44.04825 | 7.79560 | 26088 ft | 444 kts | 233° |
| 2026-05-01 12:53 | 44.02870 | 7.76243 | 25502 ft | 443 kts | 233° |
| 2026-05-01 12:54 | 44.01037 | 7.72760 | 24890 ft | 444 kts | 237° |
| 2026-05-01 12:54 | 43.97495 | 7.65734 | 23572 ft | 444 kts | 237° |
| 2026-05-01 12:54 | 43.95730 | 7.62244 | 22840 ft | 437 kts | 237° |
| 2026-05-01 12:55 | 43.91544 | 7.56369 | 21277 ft | 429 kts | 207° |
| 2026-05-01 12:55 | 43.89051 | 7.55256 | 20859 ft | 413 kts | 188° |
| 2026-05-01 12:55 | 43.86240 | 7.54832 | 20320 ft | 402 kts | 184° |
| 2026-05-01 12:56 | 43.83449 | 7.54474 | 19710 ft | 395 kts | 183° |
| 2026-05-01 12:56 | 43.80724 | 7.54118 | 19089 ft | 388 kts | 183° |
| 2026-05-01 12:56 | 43.78066 | 7.53765 | 18249 ft | 386 kts | 183° |
| 2026-05-01 12:56 | 43.75404 | 7.53408 | 17148 ft | 390 kts | 183° |
| 2026-05-01 12:57 | 43.72715 | 7.53045 | 16143 ft | 388 kts | 183° |
| 2026-05-01 12:57 | 43.67384 | 7.52315 | 14188 ft | 379 kts | 183° |
| 2026-05-01 12:57 | 43.64803 | 7.51961 | 13221 ft | 374 kts | 183° |
| 2026-05-01 12:58 | 43.62239 | 7.51609 | 12407 ft | 365 kts | 183° |
| 2026-05-01 12:58 | 43.59723 | 7.51262 | 11850 ft | 362 kts | 184° |
| 2026-05-01 12:58 | 43.57214 | 7.50930 | 11422 ft | 364 kts | 184° |
| 2026-05-01 12:59 | 43.52420 | 7.50319 | 10849 ft | 323 kts | 184° |
| 2026-05-01 12:59 | 43.50208 | 7.50043 | 10515 ft | 310 kts | 183° |
| 2026-05-01 12:59 | 43.46005 | 7.49522 | 9587 ft | 301 kts | 183° |
| 2026-05-01 13:00 | 43.41921 | 7.48623 | 8771 ft | 294 kts | 206° |
| 2026-05-01 13:00 | 43.40380 | 7.46837 | 8429 ft | 289 kts | 236° |
| 2026-05-01 13:01 | 43.39322 | 7.41554 | 7546 ft | 290 kts | 263° |
| 2026-05-01 13:01 | 43.39041 | 7.38812 | 7157 ft | 286 kts | 263° |
| 2026-05-01 13:01 | 43.38496 | 7.33423 | 6398 ft | 281 kts | 263° |
| 2026-05-01 13:02 | 43.38228 | 7.30757 | 6033 ft | 280 kts | 263° |
| 2026-05-01 13:07 | 43.56319 | 7.15356 | 2020 ft | 202 kts | 356° |
| 2026-05-01 13:07 | 43.57714 | 7.15117 | 1828 ft | 201 kts | 351° |
| 2026-05-01 13:07 | 43.59075 | 7.14786 | 1595 ft | 194 kts | 350° |
| 2026-05-01 13:08 | 43.60385 | 7.14416 | 1137 ft | 187 kts | 349° |
| 2026-05-01 13:08 | 43.61457 | 7.14761 | 1012 ft | 164 kts | 52° |
| 2026-05-01 13:08 | 43.62118 | 7.15891 | 973 ft | 140 kts | 49° |
| 2026-05-01 13:08 | 43.62763 | 7.16858 | 809 ft | 134 kts | 47° |
| 2026-05-01 13:09 | 43.63392 | 7.17781 | 590 ft | 126 kts | 52° |
| 2026-05-01 13:09 | 43.63976 | 7.18683 | 417 ft | 125 kts | 49° |
| 2026-05-01 13:09 | 43.64582 | 7.19547 | 254 ft | 125 kts | 49° |
| 2026-05-01 13:09 | 43.65193 | 7.20407 | 99 ft | 125 kts | 48° |
| 2026-05-01 13:10 | 43.65773 | 7.21210 | 30 ft | 107 kts | 47° |
| 2026-05-01 13:10 | 43.66185 | 7.21779 | 30 ft | 51 kts | 44° |
| 2026-05-01 13:10 | 43.66383 | 7.21985 | 31 ft | 26 kts | 27° |
| 2026-05-01 13:10 | 43.66507 | 7.22051 | 32 ft | 11 kts | 13° |
| 2026-05-01 13:11 | 43.66531 | 7.22052 | 32 ft | 2 kts | 351° |
| 2026-05-01 13:11 | 43.66544 | 7.22042 | 32 ft | 0 kts | 315° |
| 2026-05-01 13:11 | 43.66556 | 7.22017 | 32 ft | 7 kts | 292° |
| 2026-05-01 13:11 | 43.66520 | 7.21923 | 32 ft | 16 kts | 225° |
| 2026-05-01 13:12 | 43.66420 | 7.21786 | 33 ft | 23 kts | 227° |
| 2026-05-01 13:12 | 43.66298 | 7.21617 | 33 ft | 26 kts | 225° |
| 2026-05-01 13:12 | 43.66156 | 7.21424 | 33 ft | 29 kts | 225° |
| 2026-05-01 13:12 | 43.66003 | 7.21213 | 33 ft | 32 kts | 226° |
| 2026-05-01 13:13 | 43.65845 | 7.20997 | 33 ft | 20 kts | 225° |
| 2026-05-01 13:13 | 43.65758 | 7.20873 | 33 ft | 19 kts | 225° |
| 2026-05-01 13:13 | 43.65652 | 7.20728 | 33 ft | 18 kts | 224° |
| 2026-05-01 13:13 | 43.65640 | 7.20657 | 33 ft | 9 kts | 312° |
| 2026-05-01 13:14 | 43.65666 | 7.20622 | 34 ft | 6 kts | 315° |
| 2026-05-01 13:14 | 43.65669 | 7.20618 | 34 ft | 0 kts | 315° |
| 2026-05-01 13:15 | 43.65671 | 7.20606 | 34 ft | 0 kts | 268° |
| 2026-05-01 13:15 | 43.65681 | 7.20594 | 34 ft | 4 kts | 323° |
| 2026-05-01 13:16 | 43.65688 | 7.20582 | 34 ft | 1 kts | 294° |
| 2026-05-01 13:16 | 43.65686 | 7.20543 | 34 ft | 6 kts | 246° |
| 2026-05-01 13:16 | 43.65645 | 7.20475 | 34 ft | 11 kts | 224° |
| 2026-05-01 13:17 | 43.65582 | 7.20520 | 33 ft | 0 kts | 134° |